sensor_id;sensor_type;location;lat;lon;timestamp;P1;durP1;ratioP1;P2;durP2;ratioP2
71320;SDS011;59118;54.322;18.576;2022-08-19T00:01:22;18.53;;;11.43;;
71320;SDS011;59118;54.322;18.576;2022-08-19T00:03:58;17.35;;;11.23;;
71320;SDS011;59118;54.322;18.576;2022-08-19T00:06:26;18.42;;;11.00;;
71320;SDS011;59118;54.322;18.576;2022-08-19T00:08:54;16.67;;;10.80;;
71320;SDS011;59118;54.322;18.576;2022-08-19T00:11:21;19.80;;;11.13;;
71320;SDS011;59118;54.322;18.576;2022-08-19T00:13:52;16.33;;;11.47;;
71320;SDS011;59118;54.322;18.576;2022-08-19T00:16:19;17.75;;;11.10;;
71320;SDS011;59118;54.322;18.576;2022-08-19T00:18:51;23.10;;;12.00;;
71320;SDS011;59118;54.322;18.576;2022-08-19T00:21:19;22.02;;;11.95;;
71320;SDS011;59118;54.322;18.576;2022-08-19T00:23:46;19.45;;;11.93;;
71320;SDS011;59118;54.322;18.576;2022-08-19T00:26:13;22.10;;;11.50;;
71320;SDS011;59118;54.322;18.576;2022-08-19T00:28:40;18.00;;;11.38;;
71320;SDS011;59118;54.322;18.576;2022-08-19T00:31:08;17.23;;;11.45;;
71320;SDS011;59118;54.322;18.576;2022-08-19T00:33:37;20.05;;;11.35;;
71320;SDS011;59118;54.322;18.576;2022-08-19T00:36:05;17.25;;;11.23;;
71320;SDS011;59118;54.322;18.576;2022-08-19T00:38:33;15.93;;;10.77;;
71320;SDS011;59118;54.322;18.576;2022-08-19T00:41:03;17.00;;;11.07;;
71320;SDS011;59118;54.322;18.576;2022-08-19T00:43:31;16.80;;;11.10;;
71320;SDS011;59118;54.322;18.576;2022-08-19T00:45:57;18.27;;;11.93;;
71320;SDS011;59118;54.322;18.576;2022-08-19T00:48:24;18.17;;;11.98;;
71320;SDS011;59118;54.322;18.576;2022-08-19T00:50:51;18.07;;;12.20;;
71320;SDS011;59118;54.322;18.576;2022-08-19T00:53:22;20.48;;;12.15;;
71320;SDS011;59118;54.322;18.576;2022-08-19T00:56:06;16.70;;;12.05;;
71320;SDS011;59118;54.322;18.576;2022-08-19T00:58:36;18.08;;;11.48;;
71320;SDS011;59118;54.322;18.576;2022-08-19T01:01:04;18.80;;;12.13;;
71320;SDS011;59118;54.322;18.576;2022-08-19T01:03:32;18.27;;;12.13;;
71320;SDS011;59118;54.322;18.576;2022-08-19T01:06:19;18.02;;;13.07;;
71320;SDS011;59118;54.322;18.576;2022-08-19T01:08:46;18.92;;;12.80;;
71320;SDS011;59118;54.322;18.576;2022-08-19T01:11:15;20.23;;;13.05;;
71320;SDS011;59118;54.322;18.576;2022-08-19T01:13:42;18.80;;;12.35;;
71320;SDS011;59118;54.322;18.576;2022-08-19T01:16:15;18.17;;;12.77;;
71320;SDS011;59118;54.322;18.576;2022-08-19T01:18:43;17.58;;;12.60;;
71320;SDS011;59118;54.322;18.576;2022-08-19T01:21:16;18.50;;;12.70;;
71320;SDS011;59118;54.322;18.576;2022-08-19T01:23:48;17.98;;;12.00;;
71320;SDS011;59118;54.322;18.576;2022-08-19T01:26:17;17.42;;;12.68;;
71320;SDS011;59118;54.322;18.576;2022-08-19T01:28:46;21.23;;;12.57;;
71320;SDS011;59118;54.322;18.576;2022-08-19T01:31:21;17.98;;;12.73;;
71320;SDS011;59118;54.322;18.576;2022-08-19T01:33:55;19.30;;;12.82;;
71320;SDS011;59118;54.322;18.576;2022-08-19T01:36:29;17.20;;;12.30;;
71320;SDS011;59118;54.322;18.576;2022-08-19T01:38:59;15.55;;;12.52;;
71320;SDS011;59118;54.322;18.576;2022-08-19T01:41:33;20.33;;;12.43;;
71320;SDS011;59118;54.322;18.576;2022-08-19T01:44:03;16.42;;;12.25;;
71320;SDS011;59118;54.322;18.576;2022-08-19T01:46:44;19.15;;;13.40;;
71320;SDS011;59118;54.322;18.576;2022-08-19T01:49:17;19.98;;;14.20;;
71320;SDS011;59118;54.322;18.576;2022-08-19T01:51:52;18.80;;;14.85;;
71320;SDS011;59118;54.322;18.576;2022-08-19T01:54:47;25.90;;;14.10;;
71320;SDS011;59118;54.322;18.576;2022-08-19T01:57:20;17.38;;;12.75;;
71320;SDS011;59118;54.322;18.576;2022-08-19T01:59:49;16.73;;;11.95;;
71320;SDS011;59118;54.322;18.576;2022-08-19T02:02:21;17.00;;;12.35;;
71320;SDS011;59118;54.322;18.576;2022-08-19T02:04:55;19.35;;;12.65;;
71320;SDS011;59118;54.322;18.576;2022-08-19T02:07:36;17.97;;;12.73;;
71320;SDS011;59118;54.322;18.576;2022-08-19T02:10:07;19.63;;;13.23;;
71320;SDS011;59118;54.322;18.576;2022-08-19T02:12:44;19.75;;;13.63;;
71320;SDS011;59118;54.322;18.576;2022-08-19T02:15:13;20.80;;;13.20;;
71320;SDS011;59118;54.322;18.576;2022-08-19T02:17:40;18.83;;;12.93;;
71320;SDS011;59118;54.322;18.576;2022-08-19T02:20:09;16.67;;;12.27;;
71320;SDS011;59118;54.322;18.576;2022-08-19T02:22:42;19.23;;;12.82;;
71320;SDS011;59118;54.322;18.576;2022-08-19T02:25:22;20.20;;;12.77;;
71320;SDS011;59118;54.322;18.576;2022-08-19T02:27:49;17.48;;;12.38;;
71320;SDS011;59118;54.322;18.576;2022-08-19T02:30:16;17.30;;;12.60;;
71320;SDS011;59118;54.322;18.576;2022-08-19T02:32:45;18.57;;;12.50;;
71320;SDS011;59118;54.322;18.576;2022-08-19T02:35:13;19.27;;;12.40;;
71320;SDS011;59118;54.322;18.576;2022-08-19T02:37:47;19.52;;;12.98;;
71320;SDS011;59118;54.322;18.576;2022-08-19T02:40:35;19.52;;;13.35;;
71320;SDS011;59118;54.322;18.576;2022-08-19T02:43:05;19.52;;;12.43;;
71320;SDS011;59118;54.322;18.576;2022-08-19T02:46:01;16.87;;;11.97;;
71320;SDS011;59118;54.322;18.576;2022-08-19T02:49:09;18.15;;;12.07;;
71320;SDS011;59118;54.322;18.576;2022-08-19T02:52:02;21.10;;;12.50;;
71320;SDS011;59118;54.322;18.576;2022-08-19T02:54:44;18.77;;;12.25;;
71320;SDS011;59118;54.322;18.576;2022-08-19T02:57:49;19.38;;;12.10;;
71320;SDS011;59118;54.322;18.576;2022-08-19T03:00:56;21.30;;;12.40;;
71320;SDS011;59118;54.322;18.576;2022-08-19T03:04:12;17.23;;;11.75;;
71320;SDS011;59118;54.322;18.576;2022-08-19T03:07:16;16.52;;;11.95;;
71320;SDS011;59118;54.322;18.576;2022-08-19T03:13:21;20.60;;;12.13;;
71320;SDS011;59118;54.322;18.576;2022-08-19T03:15:54;17.73;;;12.07;;
71320;SDS011;59118;54.322;18.576;2022-08-19T03:18:41;18.93;;;12.37;;
71320;SDS011;59118;54.322;18.576;2022-08-19T03:21:14;26.13;;;12.60;;
71320;SDS011;59118;54.322;18.576;2022-08-19T03:23:44;17.38;;;12.60;;
71320;SDS011;59118;54.322;18.576;2022-08-19T03:26:17;17.90;;;11.98;;
71320;SDS011;59118;54.322;18.576;2022-08-19T03:28:44;18.00;;;12.25;;
71320;SDS011;59118;54.322;18.576;2022-08-19T03:31:26;16.33;;;11.30;;
71320;SDS011;59118;54.322;18.576;2022-08-19T03:34:24;17.08;;;11.32;;
71320;SDS011;59118;54.322;18.576;2022-08-19T03:37:06;17.98;;;12.20;;
71320;SDS011;59118;54.322;18.576;2022-08-19T03:39:41;16.50;;;12.20;;
71320;SDS011;59118;54.322;18.576;2022-08-19T03:42:15;16.27;;;12.23;;
71320;SDS011;59118;54.322;18.576;2022-08-19T03:45:16;19.80;;;12.30;;
71320;SDS011;59118;54.322;18.576;2022-08-19T03:47:51;17.73;;;12.27;;
71320;SDS011;59118;54.322;18.576;2022-08-19T03:50:45;17.48;;;12.43;;
71320;SDS011;59118;54.322;18.576;2022-08-19T03:53:23;15.45;;;12.15;;
71320;SDS011;59118;54.322;18.576;2022-08-19T03:55:59;15.60;;;11.55;;
71320;SDS011;59118;54.322;18.576;2022-08-19T03:58:47;19.80;;;11.93;;
71320;SDS011;59118;54.322;18.576;2022-08-19T04:01:37;21.83;;;12.48;;
71320;SDS011;59118;54.322;18.576;2022-08-19T04:04:22;19.55;;;12.57;;
71320;SDS011;59118;54.322;18.576;2022-08-19T04:06:52;18.30;;;12.32;;
71320;SDS011;59118;54.322;18.576;2022-08-19T04:09:23;20.17;;;13.30;;
71320;SDS011;59118;54.322;18.576;2022-08-19T04:11:51;19.97;;;13.03;;
71320;SDS011;59118;54.322;18.576;2022-08-19T04:14:23;21.40;;;13.60;;
71320;SDS011;59118;54.322;18.576;2022-08-19T04:16:54;17.27;;;12.48;;
71320;SDS011;59118;54.322;18.576;2022-08-19T04:19:21;19.15;;;13.10;;
71320;SDS011;59118;54.322;18.576;2022-08-19T04:21:50;19.70;;;12.55;;
71320;SDS011;59118;54.322;18.576;2022-08-19T04:24:32;20.30;;;12.50;;
71320;SDS011;59118;54.322;18.576;2022-08-19T04:27:00;19.52;;;12.40;;
71320;SDS011;59118;54.322;18.576;2022-08-19T04:29:32;19.02;;;12.20;;
71320;SDS011;59118;54.322;18.576;2022-08-19T04:31:59;18.73;;;12.65;;
71320;SDS011;59118;54.322;18.576;2022-08-19T04:34:34;18.35;;;12.70;;
71320;SDS011;59118;54.322;18.576;2022-08-19T04:37:21;18.90;;;12.77;;
71320;SDS011;59118;54.322;18.576;2022-08-19T04:39:48;20.10;;;12.65;;
71320;SDS011;59118;54.322;18.576;2022-08-19T04:42:33;19.75;;;12.75;;
71320;SDS011;59118;54.322;18.576;2022-08-19T04:45:12;20.40;;;13.05;;
71320;SDS011;59118;54.322;18.576;2022-08-19T04:47:41;22.92;;;12.68;;
71320;SDS011;59118;54.322;18.576;2022-08-19T04:50:16;19.63;;;13.13;;
71320;SDS011;59118;54.322;18.576;2022-08-19T04:52:45;19.33;;;12.88;;
71320;SDS011;59118;54.322;18.576;2022-08-19T04:55:12;23.20;;;13.60;;
71320;SDS011;59118;54.322;18.576;2022-08-19T04:57:50;21.60;;;14.30;;
71320;SDS011;59118;54.322;18.576;2022-08-19T05:00:19;25.45;;;15.10;;
71320;SDS011;59118;54.322;18.576;2022-08-19T05:02:47;19.43;;;13.80;;
71320;SDS011;59118;54.322;18.576;2022-08-19T05:05:15;25.58;;;15.10;;
71320;SDS011;59118;54.322;18.576;2022-08-19T05:07:42;19.73;;;14.88;;
71320;SDS011;59118;54.322;18.576;2022-08-19T05:10:09;24.00;;;15.07;;
71320;SDS011;59118;54.322;18.576;2022-08-19T05:12:35;21.52;;;14.27;;
71320;SDS011;59118;54.322;18.576;2022-08-19T05:15:03;22.53;;;13.70;;
71320;SDS011;59118;54.322;18.576;2022-08-19T05:17:30;19.45;;;13.48;;
71320;SDS011;59118;54.322;18.576;2022-08-19T05:20:04;20.92;;;14.32;;
71320;SDS011;59118;54.322;18.576;2022-08-19T05:22:51;22.58;;;14.55;;
71320;SDS011;59118;54.322;18.576;2022-08-19T05:25:19;21.85;;;14.52;;
71320;SDS011;59118;54.322;18.576;2022-08-19T05:27:46;19.03;;;13.77;;
71320;SDS011;59118;54.322;18.576;2022-08-19T05:30:14;24.85;;;13.52;;
71320;SDS011;59118;54.322;18.576;2022-08-19T05:32:40;23.70;;;14.07;;
71320;SDS011;59118;54.322;18.576;2022-08-19T05:35:08;27.88;;;13.15;;
71320;SDS011;59118;54.322;18.576;2022-08-19T05:37:37;23.80;;;13.15;;
71320;SDS011;59118;54.322;18.576;2022-08-19T05:40:06;18.93;;;12.73;;
71320;SDS011;59118;54.322;18.576;2022-08-19T05:42:33;22.35;;;12.82;;
71320;SDS011;59118;54.322;18.576;2022-08-19T05:45:00;24.77;;;12.98;;
71320;SDS011;59118;54.322;18.576;2022-08-19T05:47:26;20.75;;;13.15;;
71320;SDS011;59118;54.322;18.576;2022-08-19T05:49:53;27.45;;;12.73;;
71320;SDS011;59118;54.322;18.576;2022-08-19T05:52:22;19.33;;;12.40;;
71320;SDS011;59118;54.322;18.576;2022-08-19T05:54:51;22.77;;;12.98;;
71320;SDS011;59118;54.322;18.576;2022-08-19T05:57:21;26.38;;;13.07;;
71320;SDS011;59118;54.322;18.576;2022-08-19T05:59:49;22.80;;;12.70;;
71320;SDS011;59118;54.322;18.576;2022-08-19T06:02:23;20.52;;;12.70;;
71320;SDS011;59118;54.322;18.576;2022-08-19T06:04:53;19.37;;;11.67;;
71320;SDS011;59118;54.322;18.576;2022-08-19T06:07:21;17.35;;;11.65;;
71320;SDS011;59118;54.322;18.576;2022-08-19T06:09:48;20.08;;;11.57;;
71320;SDS011;59118;54.322;18.576;2022-08-19T06:12:25;18.35;;;12.15;;
71320;SDS011;59118;54.322;18.576;2022-08-19T06:14:55;21.90;;;11.93;;
71320;SDS011;59118;54.322;18.576;2022-08-19T06:17:26;17.70;;;12.10;;
71320;SDS011;59118;54.322;18.576;2022-08-19T06:19:55;19.50;;;11.52;;
71320;SDS011;59118;54.322;18.576;2022-08-19T06:22:22;19.98;;;11.98;;
71320;SDS011;59118;54.322;18.576;2022-08-19T06:24:49;22.13;;;12.07;;
71320;SDS011;59118;54.322;18.576;2022-08-19T06:27:19;17.92;;;11.48;;
71320;SDS011;59118;54.322;18.576;2022-08-19T06:29:48;18.40;;;11.73;;
71320;SDS011;59118;54.322;18.576;2022-08-19T06:32:15;18.05;;;11.68;;
71320;SDS011;59118;54.322;18.576;2022-08-19T06:34:42;20.90;;;11.75;;
71320;SDS011;59118;54.322;18.576;2022-08-19T06:37:11;19.65;;;11.95;;
71320;SDS011;59118;54.322;18.576;2022-08-19T06:39:39;17.50;;;11.73;;
71320;SDS011;59118;54.322;18.576;2022-08-19T06:42:08;18.20;;;11.83;;
71320;SDS011;59118;54.322;18.576;2022-08-19T06:44:39;15.65;;;10.85;;
71320;SDS011;59118;54.322;18.576;2022-08-19T06:47:09;16.77;;;10.35;;
71320;SDS011;59118;54.322;18.576;2022-08-19T06:49:40;16.83;;;11.10;;
71320;SDS011;59118;54.322;18.576;2022-08-19T06:52:08;18.52;;;10.82;;
71320;SDS011;59118;54.322;18.576;2022-08-19T06:54:39;18.67;;;10.60;;
71320;SDS011;59118;54.322;18.576;2022-08-19T06:57:23;21.77;;;10.40;;
71320;SDS011;59118;54.322;18.576;2022-08-19T06:59:50;17.60;;;11.40;;
71320;SDS011;59118;54.322;18.576;2022-08-19T07:02:17;18.80;;;10.90;;
71320;SDS011;59118;54.322;18.576;2022-08-19T07:04:44;18.25;;;11.40;;
71320;SDS011;59118;54.322;18.576;2022-08-19T07:07:12;15.87;;;10.63;;
71320;SDS011;59118;54.322;18.576;2022-08-19T07:09:46;21.77;;;10.57;;
71320;SDS011;59118;54.322;18.576;2022-08-19T07:12:25;19.45;;;10.98;;
71320;SDS011;59118;54.322;18.576;2022-08-19T07:14:56;17.80;;;10.25;;
71320;SDS011;59118;54.322;18.576;2022-08-19T07:17:24;20.60;;;11.60;;
71320;SDS011;59118;54.322;18.576;2022-08-19T07:19:50;19.13;;;9.93;;
71320;SDS011;59118;54.322;18.576;2022-08-19T07:22:20;18.42;;;10.35;;
71320;SDS011;59118;54.322;18.576;2022-08-19T07:24:49;19.42;;;9.70;;
71320;SDS011;59118;54.322;18.576;2022-08-19T07:27:17;16.50;;;10.52;;
71320;SDS011;59118;54.322;18.576;2022-08-19T07:29:49;14.70;;;10.35;;
71320;SDS011;59118;54.322;18.576;2022-08-19T07:32:22;18.07;;;10.47;;
71320;SDS011;59118;54.322;18.576;2022-08-19T07:34:49;13.60;;;10.43;;
71320;SDS011;59118;54.322;18.576;2022-08-19T07:37:15;19.90;;;10.93;;
71320;SDS011;59118;54.322;18.576;2022-08-19T07:39:42;16.15;;;10.52;;
71320;SDS011;59118;54.322;18.576;2022-08-19T07:42:09;14.20;;;10.50;;
71320;SDS011;59118;54.322;18.576;2022-08-19T07:44:40;20.90;;;10.83;;
71320;SDS011;59118;54.322;18.576;2022-08-19T07:47:15;18.48;;;11.13;;
71320;SDS011;59118;54.322;18.576;2022-08-19T07:50:03;18.67;;;10.60;;
71320;SDS011;59118;54.322;18.576;2022-08-19T07:52:33;16.60;;;10.20;;
71320;SDS011;59118;54.322;18.576;2022-08-19T07:55:01;17.15;;;10.30;;
71320;SDS011;59118;54.322;18.576;2022-08-19T07:57:31;18.10;;;10.73;;
71320;SDS011;59118;54.322;18.576;2022-08-19T07:59:58;15.10;;;9.95;;
71320;SDS011;59118;54.322;18.576;2022-08-19T08:02:25;16.20;;;10.18;;
71320;SDS011;59118;54.322;18.576;2022-08-19T08:04:51;14.57;;;10.00;;
71320;SDS011;59118;54.322;18.576;2022-08-19T08:07:36;20.48;;;10.73;;
71320;SDS011;59118;54.322;18.576;2022-08-19T08:10:22;15.37;;;10.20;;
71320;SDS011;59118;54.322;18.576;2022-08-19T08:12:49;16.67;;;9.85;;
71320;SDS011;59118;54.322;18.576;2022-08-19T08:15:37;14.02;;;9.88;;
71320;SDS011;59118;54.322;18.576;2022-08-19T08:18:08;15.05;;;9.60;;
71320;SDS011;59118;54.322;18.576;2022-08-19T08:20:35;13.85;;;9.32;;
71320;SDS011;59118;54.322;18.576;2022-08-19T08:23:02;15.87;;;9.33;;
71320;SDS011;59118;54.322;18.576;2022-08-19T08:25:48;12.93;;;8.57;;
71320;SDS011;59118;54.322;18.576;2022-08-19T08:28:15;20.63;;;9.52;;
71320;SDS011;59118;54.322;18.576;2022-08-19T08:30:43;23.17;;;9.27;;
71320;SDS011;59118;54.322;18.576;2022-08-19T08:33:17;18.02;;;9.45;;
71320;SDS011;59118;54.322;18.576;2022-08-19T08:35:59;11.97;;;8.40;;
71320;SDS011;59118;54.322;18.576;2022-08-19T08:38:29;13.85;;;8.93;;
71320;SDS011;59118;54.322;18.576;2022-08-19T08:41:07;18.05;;;9.00;;
71320;SDS011;59118;54.322;18.576;2022-08-19T08:43:44;16.48;;;8.40;;
71320;SDS011;59118;54.322;18.576;2022-08-19T08:51:48;11.38;;;7.95;;
71320;SDS011;59118;54.322;18.576;2022-08-19T08:54:27;14.52;;;7.60;;
71320;SDS011;59118;54.322;18.576;2022-08-19T08:57:00;15.50;;;7.50;;
71320;SDS011;59118;54.322;18.576;2022-08-19T08:59:31;11.32;;;7.07;;
71320;SDS011;59118;54.322;18.576;2022-08-19T09:02:01;11.47;;;6.90;;
71320;SDS011;59118;54.322;18.576;2022-08-19T09:04:28;12.68;;;7.10;;
71320;SDS011;59118;54.322;18.576;2022-08-19T09:07:03;14.38;;;7.38;;
71320;SDS011;59118;54.322;18.576;2022-08-19T09:10:08;14.57;;;6.95;;
71320;SDS011;59118;54.322;18.576;2022-08-19T09:12:50;10.45;;;6.35;;
71320;SDS011;59118;54.322;18.576;2022-08-19T09:15:22;12.83;;;6.63;;
71320;SDS011;59118;54.322;18.576;2022-08-19T09:18:00;14.98;;;6.90;;
71320;SDS011;59118;54.322;18.576;2022-08-19T09:20:33;13.32;;;7.03;;
71320;SDS011;59118;54.322;18.576;2022-08-19T09:23:00;16.65;;;6.20;;
71320;SDS011;59118;54.322;18.576;2022-08-19T09:25:26;10.18;;;6.35;;
71320;SDS011;59118;54.322;18.576;2022-08-19T09:27:54;11.93;;;6.57;;
71320;SDS011;59118;54.322;18.576;2022-08-19T09:30:29;15.18;;;7.07;;
71320;SDS011;59118;54.322;18.576;2022-08-19T09:32:57;12.95;;;6.88;;
71320;SDS011;59118;54.322;18.576;2022-08-19T09:35:24;13.00;;;6.43;;
71320;SDS011;59118;54.322;18.576;2022-08-19T09:37:53;14.93;;;7.03;;
71320;SDS011;59118;54.322;18.576;2022-08-19T09:40:25;12.13;;;6.47;;
71320;SDS011;59118;54.322;18.576;2022-08-19T09:42:55;11.27;;;6.32;;
71320;SDS011;59118;54.322;18.576;2022-08-19T09:45:23;17.00;;;7.30;;
71320;SDS011;59118;54.322;18.576;2022-08-19T09:47:50;10.63;;;6.60;;
71320;SDS011;59118;54.322;18.576;2022-08-19T09:50:19;17.00;;;7.30;;
71320;SDS011;59118;54.322;18.576;2022-08-19T09:52:47;13.10;;;7.33;;
71320;SDS011;59118;54.322;18.576;2022-08-19T09:55:22;12.05;;;6.82;;
71320;SDS011;59118;54.322;18.576;2022-08-19T09:57:49;13.95;;;6.70;;
71320;SDS011;59118;54.322;18.576;2022-08-19T10:00:17;10.90;;;6.25;;
71320;SDS011;59118;54.322;18.576;2022-08-19T10:02:43;12.27;;;6.93;;
71320;SDS011;59118;54.322;18.576;2022-08-19T10:05:10;24.33;;;6.60;;
71320;SDS011;59118;54.322;18.576;2022-08-19T10:07:56;11.38;;;6.78;;
71320;SDS011;59118;54.322;18.576;2022-08-19T10:10:23;12.27;;;6.97;;
71320;SDS011;59118;54.322;18.576;2022-08-19T10:12:50;11.10;;;6.50;;
71320;SDS011;59118;54.322;18.576;2022-08-19T10:15:17;12.23;;;6.38;;
71320;SDS011;59118;54.322;18.576;2022-08-19T10:17:54;19.77;;;6.67;;
71320;SDS011;59118;54.322;18.576;2022-08-19T10:20:23;17.02;;;6.22;;
71320;SDS011;59118;54.322;18.576;2022-08-19T10:22:50;19.38;;;6.85;;
71320;SDS011;59118;54.322;18.576;2022-08-19T10:25:18;12.57;;;5.95;;
71320;SDS011;59118;54.322;18.576;2022-08-19T10:27:45;13.00;;;6.57;;
71320;SDS011;59118;54.322;18.576;2022-08-19T10:30:16;131.27;;;23.03;;
71320;SDS011;59118;54.322;18.576;2022-08-19T10:32:45;17.40;;;6.15;;
71320;SDS011;59118;54.322;18.576;2022-08-19T10:35:12;12.73;;;6.47;;
71320;SDS011;59118;54.322;18.576;2022-08-19T10:37:47;12.38;;;6.32;;
71320;SDS011;59118;54.322;18.576;2022-08-19T10:40:22;16.95;;;7.25;;
71320;SDS011;59118;54.322;18.576;2022-08-19T10:42:49;10.67;;;6.70;;
71320;SDS011;59118;54.322;18.576;2022-08-19T10:45:16;13.85;;;6.32;;
71320;SDS011;59118;54.322;18.576;2022-08-19T10:47:43;13.93;;;6.72;;
71320;SDS011;59118;54.322;18.576;2022-08-19T10:50:09;14.30;;;6.70;;
71320;SDS011;59118;54.322;18.576;2022-08-19T10:52:55;12.73;;;6.70;;
71320;SDS011;59118;54.322;18.576;2022-08-19T10:55:23;17.00;;;6.53;;
71320;SDS011;59118;54.322;18.576;2022-08-19T10:58:12;12.43;;;6.82;;
71320;SDS011;59118;54.322;18.576;2022-08-19T11:00:40;13.25;;;7.20;;
71320;SDS011;59118;54.322;18.576;2022-08-19T11:03:09;11.57;;;6.22;;
71320;SDS011;59118;54.322;18.576;2022-08-19T11:05:36;12.30;;;7.25;;
71320;SDS011;59118;54.322;18.576;2022-08-19T11:08:05;17.83;;;7.10;;
71320;SDS011;59118;54.322;18.576;2022-08-19T11:10:48;12.80;;;6.22;;
71320;SDS011;59118;54.322;18.576;2022-08-19T11:13:15;10.93;;;6.97;;
71320;SDS011;59118;54.322;18.576;2022-08-19T11:15:42;12.02;;;6.72;;
71320;SDS011;59118;54.322;18.576;2022-08-19T11:18:10;9.80;;;6.20;;
71320;SDS011;59118;54.322;18.576;2022-08-19T11:20:38;18.93;;;6.90;;
71320;SDS011;59118;54.322;18.576;2022-08-19T11:23:05;13.25;;;6.25;;
71320;SDS011;59118;54.322;18.576;2022-08-19T11:25:32;11.45;;;6.25;;
71320;SDS011;59118;54.322;18.576;2022-08-19T11:27:59;11.82;;;6.35;;
71320;SDS011;59118;54.322;18.576;2022-08-19T11:30:25;11.38;;;6.50;;
71320;SDS011;59118;54.322;18.576;2022-08-19T11:32:54;11.10;;;6.47;;
71320;SDS011;59118;54.322;18.576;2022-08-19T11:35:20;19.02;;;6.75;;
71320;SDS011;59118;54.322;18.576;2022-08-19T11:37:49;25.48;;;7.45;;
71320;SDS011;59118;54.322;18.576;2022-08-19T11:40:17;12.43;;;6.55;;
71320;SDS011;59118;54.322;18.576;2022-08-19T11:42:44;13.57;;;6.47;;
71320;SDS011;59118;54.322;18.576;2022-08-19T11:45:23;12.60;;;6.97;;
71320;SDS011;59118;54.322;18.576;2022-08-19T11:47:50;14.20;;;6.95;;
71320;SDS011;59118;54.322;18.576;2022-08-19T11:50:17;14.75;;;7.18;;
71320;SDS011;59118;54.322;18.576;2022-08-19T11:52:44;12.27;;;6.80;;
71320;SDS011;59118;54.322;18.576;2022-08-19T11:55:12;12.50;;;7.18;;
71320;SDS011;59118;54.322;18.576;2022-08-19T11:57:39;11.40;;;6.67;;
71320;SDS011;59118;54.322;18.576;2022-08-19T12:00:10;15.57;;;6.70;;
71320;SDS011;59118;54.322;18.576;2022-08-19T12:02:39;14.23;;;7.20;;
71320;SDS011;59118;54.322;18.576;2022-08-19T12:05:07;15.82;;;7.30;;
71320;SDS011;59118;54.322;18.576;2022-08-19T12:07:38;14.90;;;7.47;;
71320;SDS011;59118;54.322;18.576;2022-08-19T12:10:06;14.53;;;7.20;;
71320;SDS011;59118;54.322;18.576;2022-08-19T12:12:33;13.15;;;6.85;;
71320;SDS011;59118;54.322;18.576;2022-08-19T12:15:00;14.18;;;6.80;;
71320;SDS011;59118;54.322;18.576;2022-08-19T12:17:29;11.20;;;6.72;;
71320;SDS011;59118;54.322;18.576;2022-08-19T12:19:57;10.90;;;6.90;;
71320;SDS011;59118;54.322;18.576;2022-08-19T12:22:23;12.70;;;6.77;;
71320;SDS011;59118;54.322;18.576;2022-08-19T12:24:50;11.43;;;7.03;;
71320;SDS011;59118;54.322;18.576;2022-08-19T12:27:20;14.00;;;6.88;;
71320;SDS011;59118;54.322;18.576;2022-08-19T12:30:06;13.93;;;6.65;;
71320;SDS011;59118;54.322;18.576;2022-08-19T12:32:34;19.85;;;6.70;;
71320;SDS011;59118;54.322;18.576;2022-08-19T12:35:01;11.67;;;6.60;;
71320;SDS011;59118;54.322;18.576;2022-08-19T12:37:28;12.82;;;6.47;;
71320;SDS011;59118;54.322;18.576;2022-08-19T12:39:58;12.48;;;6.20;;
71320;SDS011;59118;54.322;18.576;2022-08-19T12:42:25;13.50;;;6.57;;
71320;SDS011;59118;54.322;18.576;2022-08-19T12:44:52;14.38;;;6.65;;
71320;SDS011;59118;54.322;18.576;2022-08-19T12:47:19;13.87;;;6.27;;
71320;SDS011;59118;54.322;18.576;2022-08-19T12:49:48;14.05;;;6.80;;
71320;SDS011;59118;54.322;18.576;2022-08-19T12:52:24;16.20;;;6.80;;
71320;SDS011;59118;54.322;18.576;2022-08-19T12:54:52;11.13;;;6.47;;
71320;SDS011;59118;54.322;18.576;2022-08-19T12:57:27;13.68;;;6.60;;
71320;SDS011;59118;54.322;18.576;2022-08-19T12:59:58;10.93;;;6.70;;
71320;SDS011;59118;54.322;18.576;2022-08-19T13:02:29;12.68;;;6.93;;
71320;SDS011;59118;54.322;18.576;2022-08-19T13:05:06;11.95;;;6.97;;
71320;SDS011;59118;54.322;18.576;2022-08-19T13:07:35;14.73;;;7.00;;
71320;SDS011;59118;54.322;18.576;2022-08-19T13:10:03;14.77;;;6.78;;
71320;SDS011;59118;54.322;18.576;2022-08-19T13:12:37;10.37;;;6.83;;
71320;SDS011;59118;54.322;18.576;2022-08-19T13:15:04;14.50;;;6.63;;
71320;SDS011;59118;54.322;18.576;2022-08-19T13:17:36;15.13;;;7.00;;
71320;SDS011;59118;54.322;18.576;2022-08-19T13:20:04;12.98;;;7.43;;
71320;SDS011;59118;54.322;18.576;2022-08-19T13:22:35;13.00;;;6.63;;
71320;SDS011;59118;54.322;18.576;2022-08-19T13:25:03;16.50;;;7.40;;
71320;SDS011;59118;54.322;18.576;2022-08-19T13:27:31;13.02;;;7.40;;
71320;SDS011;59118;54.322;18.576;2022-08-19T13:29:58;13.82;;;6.95;;
71320;SDS011;59118;54.322;18.576;2022-08-19T13:32:44;11.65;;;7.05;;
71320;SDS011;59118;54.322;18.576;2022-08-19T13:35:34;10.68;;;6.78;;
71320;SDS011;59118;54.322;18.576;2022-08-19T13:38:08;12.60;;;7.23;;
71320;SDS011;59118;54.322;18.576;2022-08-19T13:40:37;10.52;;;6.30;;
71320;SDS011;59118;54.322;18.576;2022-08-19T13:43:07;15.90;;;7.25;;
71320;SDS011;59118;54.322;18.576;2022-08-19T13:45:52;15.93;;;7.05;;
71320;SDS011;59118;54.322;18.576;2022-08-19T13:48:23;9.73;;;6.95;;
71320;SDS011;59118;54.322;18.576;2022-08-19T13:50:52;13.83;;;6.87;;
71320;SDS011;59118;54.322;18.576;2022-08-19T13:53:22;13.82;;;6.90;;
71320;SDS011;59118;54.322;18.576;2022-08-19T13:55:49;13.32;;;6.60;;
71320;SDS011;59118;54.322;18.576;2022-08-19T13:58:17;13.45;;;7.15;;
71320;SDS011;59118;54.322;18.576;2022-08-19T14:00:44;14.00;;;6.85;;
71320;SDS011;59118;54.322;18.576;2022-08-19T14:03:12;10.87;;;6.80;;
71320;SDS011;59118;54.322;18.576;2022-08-19T14:05:39;16.05;;;7.03;;
71320;SDS011;59118;54.322;18.576;2022-08-19T14:08:06;13.30;;;7.22;;
71320;SDS011;59118;54.322;18.576;2022-08-19T14:10:32;15.38;;;6.53;;
71320;SDS011;59118;54.322;18.576;2022-08-19T14:13:01;12.43;;;7.13;;
71320;SDS011;59118;54.322;18.576;2022-08-19T14:15:29;15.60;;;7.30;;
71320;SDS011;59118;54.322;18.576;2022-08-19T14:17:56;13.77;;;6.90;;
71320;SDS011;59118;54.322;18.576;2022-08-19T14:20:23;12.68;;;7.10;;
71320;SDS011;59118;54.322;18.576;2022-08-19T14:22:51;15.40;;;6.93;;
71320;SDS011;59118;54.322;18.576;2022-08-19T14:25:21;12.70;;;6.65;;
71320;SDS011;59118;54.322;18.576;2022-08-19T14:27:50;13.03;;;6.73;;
71320;SDS011;59118;54.322;18.576;2022-08-19T14:30:18;16.60;;;7.07;;
71320;SDS011;59118;54.322;18.576;2022-08-19T14:32:49;12.25;;;6.47;;
71320;SDS011;59118;54.322;18.576;2022-08-19T14:35:16;12.65;;;6.85;;
71320;SDS011;59118;54.322;18.576;2022-08-19T14:37:42;13.20;;;6.97;;
71320;SDS011;59118;54.322;18.576;2022-08-19T14:40:12;13.40;;;7.37;;
71320;SDS011;59118;54.322;18.576;2022-08-19T14:42:40;12.45;;;6.88;;
71320;SDS011;59118;54.322;18.576;2022-08-19T14:45:08;16.05;;;7.03;;
71320;SDS011;59118;54.322;18.576;2022-08-19T14:47:35;18.13;;;7.15;;
71320;SDS011;59118;54.322;18.576;2022-08-19T14:50:08;13.80;;;6.95;;